sensor_id;sensor_type;location;lat;lon;timestamp;P1;durP1;ratioP1;P2;durP2;ratioP2
44955;SDS011;30686;52.512;-1.188;2022-12-07T00:01:28;9.27;;;4.50;;
44955;SDS011;30686;52.512;-1.188;2022-12-07T00:03:55;14.23;;;4.68;;
44955;SDS011;30686;52.512;-1.188;2022-12-07T00:06:25;13.75;;;4.45;;
44955;SDS011;30686;52.512;-1.188;2022-12-07T00:08:52;9.85;;;5.47;;
44955;SDS011;30686;52.512;-1.188;2022-12-07T00:11:19;13.52;;;5.35;;
44955;SDS011;30686;52.512;-1.188;2022-12-07T00:13:46;13.38;;;5.05;;
44955;SDS011;30686;52.512;-1.188;2022-12-07T00:16:13;9.93;;;5.35;;
44955;SDS011;30686;52.512;-1.188;2022-12-07T00:18:40;10.70;;;4.38;;
44955;SDS011;30686;52.512;-1.188;2022-12-07T00:21:09;13.38;;;4.93;;
44955;SDS011;30686;52.512;-1.188;2022-12-07T00:23:35;10.07;;;4.95;;
44955;SDS011;30686;52.512;-1.188;2022-12-07T00:26:09;13.30;;;5.40;;
44955;SDS011;30686;52.512;-1.188;2022-12-07T00:28:35;15.13;;;5.53;;
44955;SDS011;30686;52.512;-1.188;2022-12-07T00:31:03;17.33;;;4.75;;
44955;SDS011;30686;52.512;-1.188;2022-12-07T00:33:29;12.27;;;5.05;;
44955;SDS011;30686;52.512;-1.188;2022-12-07T00:35:56;10.55;;;4.95;;
44955;SDS011;30686;52.512;-1.188;2022-12-07T00:38:23;13.27;;;4.72;;
44955;SDS011;30686;52.512;-1.188;2022-12-07T00:40:59;16.33;;;5.45;;
44955;SDS011;30686;52.512;-1.188;2022-12-07T00:43:25;9.80;;;4.90;;
44955;SDS011;30686;52.512;-1.188;2022-12-07T00:45:52;13.23;;;5.70;;
44955;SDS011;30686;52.512;-1.188;2022-12-07T00:48:18;14.82;;;5.00;;
44955;SDS011;30686;52.512;-1.188;2022-12-07T00:50:45;14.25;;;5.30;;
44955;SDS011;30686;52.512;-1.188;2022-12-07T00:53:11;9.45;;;4.90;;
44955;SDS011;30686;52.512;-1.188;2022-12-07T00:55:37;14.75;;;6.03;;
44955;SDS011;30686;52.512;-1.188;2022-12-07T00:58:04;11.70;;;5.47;;
44955;SDS011;30686;52.512;-1.188;2022-12-07T01:00:32;13.40;;;5.80;;
44955;SDS011;30686;52.512;-1.188;2022-12-07T01:02:59;10.02;;;5.03;;
44955;SDS011;30686;52.512;-1.188;2022-12-07T01:05:26;12.55;;;5.32;;
44955;SDS011;30686;52.512;-1.188;2022-12-07T01:07:52;18.33;;;6.93;;
44955;SDS011;30686;52.512;-1.188;2022-12-07T01:10:18;9.95;;;4.93;;
44955;SDS011;30686;52.512;-1.188;2022-12-07T01:12:44;11.50;;;5.20;;
44955;SDS011;30686;52.512;-1.188;2022-12-07T01:15:10;9.18;;;5.28;;
44955;SDS011;30686;52.512;-1.188;2022-12-07T01:17:37;12.70;;;5.82;;
44955;SDS011;30686;52.512;-1.188;2022-12-07T01:20:03;9.60;;;5.28;;
44955;SDS011;30686;52.512;-1.188;2022-12-07T01:22:29;12.35;;;5.40;;
44955;SDS011;30686;52.512;-1.188;2022-12-07T01:24:56;11.32;;;5.15;;
44955;SDS011;30686;52.512;-1.188;2022-12-07T01:27:22;9.90;;;4.95;;
44955;SDS011;30686;52.512;-1.188;2022-12-07T01:29:48;11.55;;;5.15;;
44955;SDS011;30686;52.512;-1.188;2022-12-07T01:32:14;10.15;;;5.32;;
44955;SDS011;30686;52.512;-1.188;2022-12-07T01:34:40;17.27;;;5.68;;
44955;SDS011;30686;52.512;-1.188;2022-12-07T01:37:07;11.15;;;5.22;;
44955;SDS011;30686;52.512;-1.188;2022-12-07T01:39:33;17.80;;;4.97;;
44955;SDS011;30686;52.512;-1.188;2022-12-07T01:41:59;12.05;;;5.07;;
44955;SDS011;30686;52.512;-1.188;2022-12-07T01:44:26;10.43;;;5.03;;
44955;SDS011;30686;52.512;-1.188;2022-12-07T01:46:58;18.85;;;5.35;;
44955;SDS011;30686;52.512;-1.188;2022-12-07T01:49:33;14.40;;;4.28;;
44955;SDS011;30686;52.512;-1.188;2022-12-07T01:52:04;8.90;;;4.55;;
44955;SDS011;30686;52.512;-1.188;2022-12-07T01:54:33;9.77;;;4.20;;
44955;SDS011;30686;52.512;-1.188;2022-12-07T01:57:00;13.27;;;4.97;;
44955;SDS011;30686;52.512;-1.188;2022-12-07T01:59:26;13.93;;;5.10;;
44955;SDS011;30686;52.512;-1.188;2022-12-07T02:01:54;9.98;;;4.20;;
44955;SDS011;30686;52.512;-1.188;2022-12-07T02:04:21;13.60;;;5.60;;
44955;SDS011;30686;52.512;-1.188;2022-12-07T02:06:48;10.32;;;5.05;;
44955;SDS011;30686;52.512;-1.188;2022-12-07T02:09:14;15.52;;;5.53;;
44955;SDS011;30686;52.512;-1.188;2022-12-07T02:11:40;11.10;;;4.43;;
44955;SDS011;30686;52.512;-1.188;2022-12-07T02:14:07;10.88;;;5.05;;
44955;SDS011;30686;52.512;-1.188;2022-12-07T02:29:33;10.90;;;4.45;;
44955;SDS011;30686;52.512;-1.188;2022-12-07T02:32:08;9.70;;;5.15;;
44955;SDS011;30686;52.512;-1.188;2022-12-07T02:34:49;7.95;;;4.45;;
44955;SDS011;30686;52.512;-1.188;2022-12-07T02:37:39;11.60;;;4.75;;
44955;SDS011;30686;52.512;-1.188;2022-12-07T02:40:28;14.20;;;4.78;;
44955;SDS011;30686;52.512;-1.188;2022-12-07T02:42:58;7.00;;;4.38;;
44955;SDS011;30686;52.512;-1.188;2022-12-07T02:45:27;9.60;;;4.78;;
44955;SDS011;30686;52.512;-1.188;2022-12-07T02:47:56;12.38;;;4.65;;
44955;SDS011;30686;52.512;-1.188;2022-12-07T02:50:24;13.13;;;4.82;;
44955;SDS011;30686;52.512;-1.188;2022-12-07T02:52:50;11.35;;;4.65;;
44955;SDS011;30686;52.512;-1.188;2022-12-07T02:55:17;10.52;;;4.20;;
44955;SDS011;30686;52.512;-1.188;2022-12-07T03:05:58;14.73;;;4.85;;
44955;SDS011;30686;52.512;-1.188;2022-12-07T03:11:12;7.28;;;4.22;;
44955;SDS011;30686;52.512;-1.188;2022-12-07T03:16:45;9.60;;;4.45;;
44955;SDS011;30686;52.512;-1.188;2022-12-07T03:19:15;13.50;;;4.50;;
44955;SDS011;30686;52.512;-1.188;2022-12-07T03:21:44;12.43;;;4.90;;
44955;SDS011;30686;52.512;-1.188;2022-12-07T03:24:21;10.88;;;4.47;;
44955;SDS011;30686;52.512;-1.188;2022-12-07T03:26:48;8.27;;;4.78;;
44955;SDS011;30686;52.512;-1.188;2022-12-07T03:29:19;14.07;;;5.45;;
44955;SDS011;30686;52.512;-1.188;2022-12-07T03:31:49;12.45;;;4.90;;
44955;SDS011;30686;52.512;-1.188;2022-12-07T03:34:33;11.95;;;4.35;;
44955;SDS011;30686;52.512;-1.188;2022-12-07T03:41:53;11.70;;;4.18;;
44955;SDS011;30686;52.512;-1.188;2022-12-07T03:44:20;12.23;;;4.63;;
44955;SDS011;30686;52.512;-1.188;2022-12-07T03:55:19;13.23;;;4.50;;
44955;SDS011;30686;52.512;-1.188;2022-12-07T03:57:47;12.07;;;4.13;;
44955;SDS011;30686;52.512;-1.188;2022-12-07T04:00:15;19.95;;;4.60;;
44955;SDS011;30686;52.512;-1.188;2022-12-07T04:02:41;9.20;;;4.15;;
44955;SDS011;30686;52.512;-1.188;2022-12-07T04:05:08;10.55;;;4.50;;
44955;SDS011;30686;52.512;-1.188;2022-12-07T04:07:35;11.52;;;4.53;;
44955;SDS011;30686;52.512;-1.188;2022-12-07T04:10:01;10.93;;;4.50;;
44955;SDS011;30686;52.512;-1.188;2022-12-07T04:12:28;10.45;;;4.78;;
44955;SDS011;30686;52.512;-1.188;2022-12-07T04:14:54;17.15;;;4.85;;
44955;SDS011;30686;52.512;-1.188;2022-12-07T04:17:20;11.98;;;4.05;;
44955;SDS011;30686;52.512;-1.188;2022-12-07T04:19:46;13.55;;;4.50;;
44955;SDS011;30686;52.512;-1.188;2022-12-07T04:22:13;13.48;;;5.55;;
44955;SDS011;30686;52.512;-1.188;2022-12-07T04:24:39;12.02;;;4.70;;
44955;SDS011;30686;52.512;-1.188;2022-12-07T04:27:05;11.82;;;4.68;;
44955;SDS011;30686;52.512;-1.188;2022-12-07T04:29:31;16.25;;;5.53;;
44955;SDS011;30686;52.512;-1.188;2022-12-07T04:31:58;15.38;;;5.20;;
44955;SDS011;30686;52.512;-1.188;2022-12-07T04:34:24;18.00;;;5.75;;
44955;SDS011;30686;52.512;-1.188;2022-12-07T04:36:50;13.20;;;4.78;;
44955;SDS011;30686;52.512;-1.188;2022-12-07T04:39:23;11.65;;;5.65;;
44955;SDS011;30686;52.512;-1.188;2022-12-07T04:41:50;11.63;;;5.03;;
44955;SDS011;30686;52.512;-1.188;2022-12-07T04:44:16;10.80;;;5.13;;
44955;SDS011;30686;52.512;-1.188;2022-12-07T04:46:43;14.73;;;5.93;;
44955;SDS011;30686;52.512;-1.188;2022-12-07T04:49:10;15.82;;;4.70;;
44955;SDS011;30686;52.512;-1.188;2022-12-07T04:51:36;11.43;;;5.15;;
44955;SDS011;30686;52.512;-1.188;2022-12-07T04:54:03;13.02;;;5.43;;
44955;SDS011;30686;52.512;-1.188;2022-12-07T04:56:30;13.65;;;5.15;;
44955;SDS011;30686;52.512;-1.188;2022-12-07T04:58:56;10.65;;;4.78;;
44955;SDS011;30686;52.512;-1.188;2022-12-07T05:01:23;14.07;;;5.13;;
44955;SDS011;30686;52.512;-1.188;2022-12-07T05:03:49;13.02;;;5.55;;
44955;SDS011;30686;52.512;-1.188;2022-12-07T05:06:15;9.75;;;5.28;;
44955;SDS011;30686;52.512;-1.188;2022-12-07T05:08:42;12.82;;;5.32;;
44955;SDS011;30686;52.512;-1.188;2022-12-07T05:11:08;12.65;;;5.07;;
44955;SDS011;30686;52.512;-1.188;2022-12-07T05:13:35;13.55;;;5.50;;
44955;SDS011;30686;52.512;-1.188;2022-12-07T05:16:02;9.77;;;4.68;;
44955;SDS011;30686;52.512;-1.188;2022-12-07T05:18:28;10.63;;;5.22;;
44955;SDS011;30686;52.512;-1.188;2022-12-07T05:20:55;12.55;;;4.97;;
44955;SDS011;30686;52.512;-1.188;2022-12-07T05:23:21;13.95;;;5.47;;
44955;SDS011;30686;52.512;-1.188;2022-12-07T05:25:47;10.30;;;4.70;;
44955;SDS011;30686;52.512;-1.188;2022-12-07T05:28:13;11.50;;;5.72;;
44955;SDS011;30686;52.512;-1.188;2022-12-07T05:33:43;11.68;;;5.72;;
44955;SDS011;30686;52.512;-1.188;2022-12-07T05:36:09;16.30;;;5.00;;
44955;SDS011;30686;52.512;-1.188;2022-12-07T05:38:35;9.77;;;4.50;;
44955;SDS011;30686;52.512;-1.188;2022-12-07T05:41:03;11.10;;;5.40;;
44955;SDS011;30686;52.512;-1.188;2022-12-07T05:43:29;11.27;;;5.53;;
44955;SDS011;30686;52.512;-1.188;2022-12-07T05:45:56;13.15;;;5.45;;
44955;SDS011;30686;52.512;-1.188;2022-12-07T05:48:22;9.82;;;4.90;;
44955;SDS011;30686;52.512;-1.188;2022-12-07T05:50:52;11.80;;;5.65;;
44955;SDS011;30686;52.512;-1.188;2022-12-07T05:53:18;11.32;;;6.10;;
44955;SDS011;30686;52.512;-1.188;2022-12-07T05:55:45;17.00;;;6.05;;
44955;SDS011;30686;52.512;-1.188;2022-12-07T05:58:11;11.55;;;5.28;;
44955;SDS011;30686;52.512;-1.188;2022-12-07T06:00:55;11.00;;;5.30;;
44955;SDS011;30686;52.512;-1.188;2022-12-07T06:03:22;11.68;;;5.38;;
44955;SDS011;30686;52.512;-1.188;2022-12-07T06:05:48;12.88;;;5.32;;
44955;SDS011;30686;52.512;-1.188;2022-12-07T06:08:15;9.70;;;5.00;;
44955;SDS011;30686;52.512;-1.188;2022-12-07T06:10:41;11.50;;;5.43;;
44955;SDS011;30686;52.512;-1.188;2022-12-07T06:13:08;13.98;;;5.25;;
44955;SDS011;30686;52.512;-1.188;2022-12-07T06:15:37;15.75;;;5.18;;
44955;SDS011;30686;52.512;-1.188;2022-12-07T06:18:03;12.95;;;5.38;;
44955;SDS011;30686;52.512;-1.188;2022-12-07T06:20:30;10.23;;;5.15;;
44955;SDS011;30686;52.512;-1.188;2022-12-07T06:22:56;16.98;;;5.40;;
44955;SDS011;30686;52.512;-1.188;2022-12-07T06:25:22;13.68;;;5.32;;
44955;SDS011;30686;52.512;-1.188;2022-12-07T06:27:49;10.80;;;4.93;;
44955;SDS011;30686;52.512;-1.188;2022-12-07T06:30:15;12.38;;;5.13;;
44955;SDS011;30686;52.512;-1.188;2022-12-07T06:32:42;16.45;;;5.03;;
44955;SDS011;30686;52.512;-1.188;2022-12-07T06:35:09;14.20;;;5.22;;
44955;SDS011;30686;52.512;-1.188;2022-12-07T06:40:39;10.13;;;4.88;;
44955;SDS011;30686;52.512;-1.188;2022-12-07T06:43:05;11.77;;;5.45;;
44955;SDS011;30686;52.512;-1.188;2022-12-07T06:45:34;13.15;;;5.65;;
44955;SDS011;30686;52.512;-1.188;2022-12-07T06:48:00;15.18;;;5.35;;
44955;SDS011;30686;52.512;-1.188;2022-12-07T06:50:26;9.38;;;5.00;;
44955;SDS011;30686;52.512;-1.188;2022-12-07T06:52:53;9.77;;;5.30;;
44955;SDS011;30686;52.512;-1.188;2022-12-07T06:55:19;16.10;;;6.03;;
44955;SDS011;30686;52.512;-1.188;2022-12-07T06:57:45;12.27;;;4.28;;
44955;SDS011;30686;52.512;-1.188;2022-12-07T07:00:12;14.93;;;5.05;;
44955;SDS011;30686;52.512;-1.188;2022-12-07T07:02:38;14.98;;;4.63;;
44955;SDS011;30686;52.512;-1.188;2022-12-07T07:05:05;10.18;;;5.90;;
44955;SDS011;30686;52.512;-1.188;2022-12-07T07:07:31;13.60;;;5.15;;
44955;SDS011;30686;52.512;-1.188;2022-12-07T07:09:57;12.95;;;5.38;;
44955;SDS011;30686;52.512;-1.188;2022-12-07T07:12:24;8.52;;;4.40;;
44955;SDS011;30686;52.512;-1.188;2022-12-07T07:14:50;13.05;;;5.30;;
44955;SDS011;30686;52.512;-1.188;2022-12-07T07:17:16;11.98;;;5.32;;
44955;SDS011;30686;52.512;-1.188;2022-12-07T07:19:42;12.65;;;5.07;;
44955;SDS011;30686;52.512;-1.188;2022-12-07T07:22:09;16.95;;;5.15;;
44955;SDS011;30686;52.512;-1.188;2022-12-07T07:24:35;11.57;;;4.97;;
44955;SDS011;30686;52.512;-1.188;2022-12-07T07:27:01;12.23;;;5.05;;
44955;SDS011;30686;52.512;-1.188;2022-12-07T07:29:27;11.68;;;5.68;;
44955;SDS011;30686;52.512;-1.188;2022-12-07T07:31:53;11.18;;;4.53;;
44955;SDS011;30686;52.512;-1.188;2022-12-07T07:34:20;15.93;;;5.43;;
44955;SDS011;30686;52.512;-1.188;2022-12-07T07:36:46;11.70;;;3.95;;
44955;SDS011;30686;52.512;-1.188;2022-12-07T07:39:12;12.05;;;4.15;;
44955;SDS011;30686;52.512;-1.188;2022-12-07T07:41:38;11.45;;;4.53;;
44955;SDS011;30686;52.512;-1.188;2022-12-07T07:44:05;10.38;;;5.05;;
44955;SDS011;30686;52.512;-1.188;2022-12-07T07:46:31;12.13;;;4.60;;
44955;SDS011;30686;52.512;-1.188;2022-12-07T07:48:58;16.70;;;5.57;;
44955;SDS011;30686;52.512;-1.188;2022-12-07T07:51:30;11.18;;;4.43;;
44955;SDS011;30686;52.512;-1.188;2022-12-07T07:53:57;9.75;;;4.80;;
44955;SDS011;30686;52.512;-1.188;2022-12-07T07:56:23;8.50;;;4.90;;
44955;SDS011;30686;52.512;-1.188;2022-12-07T07:58:51;12.75;;;5.03;;
44955;SDS011;30686;52.512;-1.188;2022-12-07T08:01:17;8.82;;;4.43;;
44955;SDS011;30686;52.512;-1.188;2022-12-07T08:03:48;11.18;;;4.90;;
44955;SDS011;30686;52.512;-1.188;2022-12-07T08:06:14;9.90;;;4.65;;
44955;SDS011;30686;52.512;-1.188;2022-12-07T08:08:40;11.65;;;5.03;;
44955;SDS011;30686;52.512;-1.188;2022-12-07T08:11:07;11.13;;;4.40;;
44955;SDS011;30686;52.512;-1.188;2022-12-07T08:13:36;10.40;;;5.32;;
44955;SDS011;30686;52.512;-1.188;2022-12-07T08:16:07;10.38;;;4.93;;
44955;SDS011;30686;52.512;-1.188;2022-12-07T08:18:39;9.30;;;4.75;;
44955;SDS011;30686;52.512;-1.188;2022-12-07T08:21:06;8.60;;;4.03;;
44955;SDS011;30686;52.512;-1.188;2022-12-07T08:23:33;15.90;;;4.63;;
44955;SDS011;30686;52.512;-1.188;2022-12-07T08:26:00;12.80;;;4.47;;
44955;SDS011;30686;52.512;-1.188;2022-12-07T08:28:29;14.10;;;4.97;;
44955;SDS011;30686;52.512;-1.188;2022-12-07T08:30:59;12.35;;;3.97;;
44955;SDS011;30686;52.512;-1.188;2022-12-07T08:33:26;10.25;;;4.47;;
44955;SDS011;30686;52.512;-1.188;2022-12-07T08:35:52;14.18;;;4.32;;
44955;SDS011;30686;52.512;-1.188;2022-12-07T08:38:18;9.27;;;4.00;;
44955;SDS011;30686;52.512;-1.188;2022-12-07T08:40:44;8.00;;;3.60;;
44955;SDS011;30686;52.512;-1.188;2022-12-07T08:43:10;12.65;;;4.35;;
44955;SDS011;30686;52.512;-1.188;2022-12-07T08:45:37;9.63;;;4.78;;
44955;SDS011;30686;52.512;-1.188;2022-12-07T08:48:06;8.05;;;4.50;;
44955;SDS011;30686;52.512;-1.188;2022-12-07T08:50:33;13.35;;;4.25;;
44955;SDS011;30686;52.512;-1.188;2022-12-07T08:53:00;10.68;;;4.05;;
44955;SDS011;30686;52.512;-1.188;2022-12-07T08:55:27;9.02;;;3.90;;
44955;SDS011;30686;52.512;-1.188;2022-12-07T08:57:54;11.35;;;4.07;;
44955;SDS011;30686;52.512;-1.188;2022-12-07T09:00:20;17.70;;;4.40;;
44955;SDS011;30686;52.512;-1.188;2022-12-07T09:02:47;13.60;;;4.15;;
44955;SDS011;30686;52.512;-1.188;2022-12-07T09:05:14;13.88;;;4.43;;
44955;SDS011;30686;52.512;-1.188;2022-12-07T09:07:40;7.78;;;3.60;;
44955;SDS011;30686;52.512;-1.188;2022-12-07T09:10:07;9.55;;;4.15;;
44955;SDS011;30686;52.512;-1.188;2022-12-07T09:12:34;12.48;;;4.22;;
44955;SDS011;30686;52.512;-1.188;2022-12-07T09:15:00;12.00;;;4.13;;
44955;SDS011;30686;52.512;-1.188;2022-12-07T09:17:26;12.50;;;4.10;;
44955;SDS011;30686;52.512;-1.188;2022-12-07T09:19:53;13.23;;;4.15;;
44955;SDS011;30686;52.512;-1.188;2022-12-07T09:22:19;8.32;;;3.92;;
44955;SDS011;30686;52.512;-1.188;2022-12-07T09:24:45;8.80;;;3.97;;
44955;SDS011;30686;52.512;-1.188;2022-12-07T09:27:12;10.77;;;3.83;;
44955;SDS011;30686;52.512;-1.188;2022-12-07T09:29:38;7.25;;;4.07;;
44955;SDS011;30686;52.512;-1.188;2022-12-07T09:32:04;8.48;;;3.85;;
44955;SDS011;30686;52.512;-1.188;2022-12-07T09:34:32;10.38;;;4.10;;
44955;SDS011;30686;52.512;-1.188;2022-12-07T09:37:00;11.10;;;3.55;;
44955;SDS011;30686;52.512;-1.188;2022-12-07T09:39:26;6.18;;;3.33;;
44955;SDS011;30686;52.512;-1.188;2022-12-07T09:41:53;9.65;;;4.50;;
44955;SDS011;30686;52.512;-1.188;2022-12-07T09:44:26;14.85;;;4.45;;
44955;SDS011;30686;52.512;-1.188;2022-12-07T09:46:53;8.48;;;3.63;;
44955;SDS011;30686;52.512;-1.188;2022-12-07T09:49:24;9.75;;;4.35;;
44955;SDS011;30686;52.512;-1.188;2022-12-07T09:54:34;11.00;;;3.45;;
44955;SDS011;30686;52.512;-1.188;2022-12-07T09:57:01;21.35;;;4.05;;
44955;SDS011;30686;52.512;-1.188;2022-12-07T09:59:28;7.93;;;3.65;;
44955;SDS011;30686;52.512;-1.188;2022-12-07T10:01:55;9.73;;;3.63;;
44955;SDS011;30686;52.512;-1.188;2022-12-07T10:04:22;10.43;;;3.80;;
44955;SDS011;30686;52.512;-1.188;2022-12-07T10:06:49;11.93;;;3.90;;
44955;SDS011;30686;52.512;-1.188;2022-12-07T10:09:17;6.72;;;3.90;;
44955;SDS011;30686;52.512;-1.188;2022-12-07T10:14:29;11.65;;;4.72;;
44955;SDS011;30686;52.512;-1.188;2022-12-07T10:16:56;11.05;;;3.63;;
44955;SDS011;30686;52.512;-1.188;2022-12-07T10:24:26;7.78;;;3.83;;
44955;SDS011;30686;52.512;-1.188;2022-12-07T10:26:54;9.57;;;3.67;;
44955;SDS011;30686;52.512;-1.188;2022-12-07T10:29:37;8.13;;;4.32;;
44955;SDS011;30686;52.512;-1.188;2022-12-07T10:32:06;7.38;;;3.92;;
44955;SDS011;30686;52.512;-1.188;2022-12-07T10:34:34;15.70;;;5.10;;
44955;SDS011;30686;52.512;-1.188;2022-12-07T10:39:42;11.32;;;4.28;;
44955;SDS011;30686;52.512;-1.188;2022-12-07T10:42:22;14.68;;;4.55;;
44955;SDS011;30686;52.512;-1.188;2022-12-07T10:44:49;17.80;;;4.35;;
44955;SDS011;30686;52.512;-1.188;2022-12-07T10:58:04;10.95;;;3.88;;
44955;SDS011;30686;52.512;-1.188;2022-12-07T11:13:25;11.43;;;4.35;;
44955;SDS011;30686;52.512;-1.188;2022-12-07T11:18:49;9.70;;;4.30;;
44955;SDS011;30686;52.512;-1.188;2022-12-07T11:32:04;13.13;;;4.90;;
44955;SDS011;30686;52.512;-1.188;2022-12-07T11:37:13;11.50;;;4.17;;
44955;SDS011;30686;52.512;-1.188;2022-12-07T11:39:44;10.05;;;4.82;;
44955;SDS011;30686;52.512;-1.188;2022-12-07T11:42:22;15.48;;;4.97;;
44955;SDS011;30686;52.512;-1.188;2022-12-07T11:44:55;10.82;;;4.35;;
44955;SDS011;30686;52.512;-1.188;2022-12-07T11:54:53;6.63;;;3.80;;
44955;SDS011;30686;52.512;-1.188;2022-12-07T11:57:28;8.27;;;4.35;;
44955;SDS011;30686;52.512;-1.188;2022-12-07T12:00:01;12.23;;;4.95;;
44955;SDS011;30686;52.512;-1.188;2022-12-07T12:05:24;10.63;;;4.90;;
44955;SDS011;30686;52.512;-1.188;2022-12-07T12:20:53;10.85;;;3.95;;
44955;SDS011;30686;52.512;-1.188;2022-12-07T12:25:55;6.82;;;4.07;;
44955;SDS011;30686;52.512;-1.188;2022-12-07T12:31:14;13.25;;;3.95;;
44955;SDS011;30686;52.512;-1.188;2022-12-07T12:33:52;16.77;;;3.55;;
44955;SDS011;30686;52.512;-1.188;2022-12-07T12:36:26;10.85;;;3.75;;
44955;SDS011;30686;52.512;-1.188;2022-12-07T12:42:07;7.30;;;3.28;;
44955;SDS011;30686;52.512;-1.188;2022-12-07T12:46:47;11.00;;;3.65;;
44955;SDS011;30686;52.512;-1.188;2022-12-07T12:51:45;9.75;;;3.35;;
44955;SDS011;30686;52.512;-1.188;2022-12-07T12:54:18;7.13;;;3.53;;
44955;SDS011;30686;52.512;-1.188;2022-12-07T13:01:48;8.85;;;3.30;;
44955;SDS011;30686;52.512;-1.188;2022-12-07T13:04:22;10.80;;;3.22;;
44955;SDS011;30686;52.512;-1.188;2022-12-07T13:06:49;12.13;;;3.65;;
44955;SDS011;30686;52.512;-1.188;2022-12-07T13:09:23;6.15;;;3.10;;
44955;SDS011;30686;52.512;-1.188;2022-12-07T13:11:54;10.60;;;3.28;;
44955;SDS011;30686;52.512;-1.188;2022-12-07T13:17:12;4.45;;;2.00;;
44955;SDS011;30686;52.512;-1.188;2022-12-07T13:19:55;7.38;;;2.75;;
44955;SDS011;30686;52.512;-1.188;2022-12-07T13:24:57;7.28;;;2.90;;
44955;SDS011;30686;52.512;-1.188;2022-12-07T13:27:25;10.73;;;3.33;;
44955;SDS011;30686;52.512;-1.188;2022-12-07T13:29:53;10.60;;;3.55;;
44955;SDS011;30686;52.512;-1.188;2022-12-07T13:32:26;9.55;;;3.40;;
44955;SDS011;30686;52.512;-1.188;2022-12-07T13:34:52;8.15;;;3.17;;
44955;SDS011;30686;52.512;-1.188;2022-12-07T13:37:28;7.35;;;2.80;;
44955;SDS011;30686;52.512;-1.188;2022-12-07T13:40:01;8.57;;;4.18;;
44955;SDS011;30686;52.512;-1.188;2022-12-07T13:42:38;8.80;;;3.08;;
44955;SDS011;30686;52.512;-1.188;2022-12-07T13:48:10;10.27;;;2.88;;
44955;SDS011;30686;52.512;-1.188;2022-12-07T13:50:39;8.20;;;3.10;;
44955;SDS011;30686;52.512;-1.188;2022-12-07T13:53:07;6.30;;;3.05;;
44955;SDS011;30686;52.512;-1.188;2022-12-07T13:55:36;11.45;;;3.65;;
44955;SDS011;30686;52.512;-1.188;2022-12-07T13:58:10;12.10;;;3.08;;
44955;SDS011;30686;52.512;-1.188;2022-12-07T14:00:36;6.05;;;2.90;;
44955;SDS011;30686;52.512;-1.188;2022-12-07T14:03:04;6.78;;;3.03;;
44955;SDS011;30686;52.512;-1.188;2022-12-07T14:05:32;11.23;;;3.60;;
44955;SDS011;30686;52.512;-1.188;2022-12-07T14:08:03;8.35;;;3.08;;
44955;SDS011;30686;52.512;-1.188;2022-12-07T14:10:34;6.75;;;2.95;;
44955;SDS011;30686;52.512;-1.188;2022-12-07T14:13:01;8.18;;;3.65;;
44955;SDS011;30686;52.512;-1.188;2022-12-07T14:15:29;6.72;;;3.60;;
44955;SDS011;30686;52.512;-1.188;2022-12-07T14:17:56;7.72;;;3.65;;
44955;SDS011;30686;52.512;-1.188;2022-12-07T14:20:30;11.70;;;3.70;;
44955;SDS011;30686;52.512;-1.188;2022-12-07T14:22:57;12.07;;;3.90;;
44955;SDS011;30686;52.512;-1.188;2022-12-07T14:25:26;9.50;;;3.92;;
44955;SDS011;30686;52.512;-1.188;2022-12-07T14:27:57;10.05;;;3.45;;
44955;SDS011;30686;52.512;-1.188;2022-12-07T14:30:24;9.30;;;3.60;;
44955;SDS011;30686;52.512;-1.188;2022-12-07T14:32:56;7.82;;;4.05;;
44955;SDS011;30686;52.512;-1.188;2022-12-07T14:35:23;9.25;;;3.45;;
44955;SDS011;30686;52.512;-1.188;2022-12-07T14:37:50;14.35;;;3.75;;
44955;SDS011;30686;52.512;-1.188;2022-12-07T14:40:20;10.38;;;3.42;;
44955;SDS011;30686;52.512;-1.188;2022-12-07T14:42:49;7.20;;;3.58;;
44955;SDS011;30686;52.512;-1.188;2022-12-07T14:45:17;13.43;;;3.35;;
44955;SDS011;30686;52.512;-1.188;2022-12-07T14:47:46;8.88;;;3.60;;
44955;SDS011;30686;52.512;-1.188;2022-12-07T14:50:14;7.43;;;2.72;;
44955;SDS011;30686;52.512;-1.188;2022-12-07T14:52:41;9.95;;;2.83;;
44955;SDS011;30686;52.512;-1.188;2022-12-07T14:55:12;7.82;;;2.65;;
44955;SDS011;30686;52.512;-1.188;2022-12-07T14:57:38;8.93;;;2.67;;
44955;SDS011;30686;52.512;-1.188;2022-12-07T15:00:05;9.73;;;3.40;;
44955;SDS011;30686;52.512;-1.188;2022-12-07T15:02:32;6.72;;;3.40;;
44955;SDS011;30686;52.512;-1.188;2022-12-07T15:04:58;10.45;;;2.85;;
44955;SDS011;30686;52.512;-1.188;2022-12-07T15:07:25;8.02;;;3.05;;
44955;SDS011;30686;52.512;-1.188;2022-12-07T15:09:51;11.05;;;3.33;;
44955;SDS011;30686;52.512;-1.188;2022-12-07T15:12:18;7.00;;;2.92;;
44955;SDS011;30686;52.512;-1.188;2022-12-07T15:14:44;6.72;;;2.90;;
44955;SDS011;30686;52.512;-1.188;2022-12-07T15:17:11;6.63;;;2.70;;
44955;SDS011;30686;52.512;-1.188;2022-12-07T15:19:38;11.00;;;3.58;;
44955;SDS011;30686;52.512;-1.188;2022-12-07T15:22:04;7.80;;;2.85;;
44955;SDS011;30686;52.512;-1.188;2022-12-07T15:24:30;5.78;;;2.70;;
44955;SDS011;30686;52.512;-1.188;2022-12-07T15:26:56;6.47;;;2.25;;
44955;SDS011;30686;52.512;-1.188;2022-12-07T15:29:24;9.75;;;3.72;;
44955;SDS011;30686;52.512;-1.188;2022-12-07T15:31:51;8.73;;;2.63;;
44955;SDS011;30686;52.512;-1.188;2022-12-07T15:34:18;7.75;;;2.30;;
44955;SDS011;30686;52.512;-1.188;2022-12-07T15:36:44;7.53;;;2.47;;
44955;SDS011;30686;52.512;-1.188;2022-12-07T15:39:10;4.18;;;2.08;;
44955;SDS011;30686;52.512;-1.188;2022-12-07T15:41:37;5.28;;;2.58;;
44955;SDS011;30686;52.512;-1.188;2022-12-07T15:44:03;5.32;;;2.22;;
44955;SDS011;30686;52.512;-1.188;2022-12-07T15:46:48;6.35;;;2.33;;
44955;SDS011;30686;52.512;-1.188;2022-12-07T15:49:15;4.07;;;1.92;;
44955;SDS011;30686;52.512;-1.188;2022-12-07T15:51:42;4.97;;;2.30;;
44955;SDS011;30686;52.512;-1.188;2022-12-07T15:54:20;5.15;;;2.58;;
44955;SDS011;30686;52.512;-1.188;2022-12-07T15:56:46;10.43;;;2.53;;
44955;SDS011;30686;52.512;-1.188;2022-12-07T15:59:12;6.10;;;2.55;;
44955;SDS011;30686;52.512;-1.188;2022-12-07T16:01:39;6.82;;;1.98;;
44955;SDS011;30686;52.512;-1.188;2022-12-07T16:04:05;6.85;;;2.28;;
44955;SDS011;30686;52.512;-1.188;2022-12-07T16:06:31;5.80;;;2.33;;
44955;SDS011;30686;52.512;-1.188;2022-12-07T16:09:03;4.55;;;1.90;;
44955;SDS011;30686;52.512;-1.188;2022-12-07T16:11:30;4.35;;;2.28;;
44955;SDS011;30686;52.512;-1.188;2022-12-07T16:13:56;4.40;;;2.03;;
44955;SDS011;30686;52.512;-1.188;2022-12-07T16:16:24;5.88;;;2.13;;
44955;SDS011;30686;52.512;-1.188;2022-12-07T16:18:51;4.57;;;2.30;;
44955;SDS011;30686;52.512;-1.188;2022-12-07T16:21:18;6.18;;;2.45;;
44955;SDS011;30686;52.512;-1.188;2022-12-07T16:23:44;5.50;;;2.10;;
44955;SDS011;30686;52.512;-1.188;2022-12-07T16:26:15;4.38;;;1.90;;
44955;SDS011;30686;52.512;-1.188;2022-12-07T16:28:43;6.93;;;2.58;;
44955;SDS011;30686;52.512;-1.188;2022-12-07T16:31:11;6.82;;;2.35;;
44955;SDS011;30686;52.512;-1.188;2022-12-07T16:33:38;11.85;;;2.17;;
44955;SDS011;30686;52.512;-1.188;2022-12-07T16:36:06;6.88;;;3.13;;
44955;SDS011;30686;52.512;-1.188;2022-12-07T16:38:33;11.48;;;3.35;;
44955;SDS011;30686;52.512;-1.188;2022-12-07T16:40:59;9.38;;;2.40;;
44955;SDS011;30686;52.512;-1.188;2022-12-07T16:43:26;4.60;;;2.22;;
44955;SDS011;30686;52.512;-1.188;2022-12-07T16:45:52;9.15;;;3.45;;
44955;SDS011;30686;52.512;-1.188;2022-12-07T16:48:21;6.32;;;2.35;;
44955;SDS011;30686;52.512;-1.188;2022-12-07T16:50:47;8.32;;;2.25;;
44955;SDS011;30686;52.512;-1.188;2022-12-07T16:53:14;7.95;;;2.55;;
44955;SDS011;30686;52.512;-1.188;2022-12-07T16:55:44;7.75;;;2.45;;
44955;SDS011;30686;52.512;-1.188;2022-12-07T16:58:11;6.93;;;2.20;;
44955;SDS011;30686;52.512;-1.188;2022-12-07T17:00:38;6.35;;;2.60;;